Terminal Aerodrome Forecast
Issued by NWS Norman, OK

Home | Current Version | Previous Version | Text Only | Print | Product List | Glossary On
Versions: 1 2 3 4 5 6 7 8 9 10 11 12 13 14 15 16 17 18 19 20 21 22 23 24
000
FTUS44 KOUN 250532
TAFSPS
TAF
KSPS 250532Z 2506/2606 15010KT P6SM SCT010 SCT040
     FM250900 15012KT P6SM BKN010
     FM251500 17014G22KT P6SM BKN020 PROB30 2517/2523 3SM -TSRA
      BKN020CB OVC100=

USA.gov is the U.S. government's official web portal to all federal, state and local government web resources and services.